sensor_id;sensor_type;location;lat;lon;timestamp;P1;durP1;ratioP1;P2;durP2;ratioP2
79412;SDS011;68863;49.528;11.010;2023-09-18T00:00:00;6.77;;;3.87;;
79412;SDS011;68863;49.528;11.010;2023-09-18T00:01:01;6.22;;;3.42;;
79412;SDS011;68863;49.528;11.010;2023-09-18T00:02:01;6.63;;;3.45;;
79412;SDS011;68863;49.528;11.010;2023-09-18T00:03:02;6.57;;;3.75;;
79412;SDS011;68863;49.528;11.010;2023-09-18T00:04:03;7.35;;;3.38;;
79412;SDS011;68863;49.528;11.010;2023-09-18T00:05:03;6.13;;;3.63;;
79412;SDS011;68863;49.528;11.010;2023-09-18T00:06:04;6.18;;;3.40;;
79412;SDS011;68863;49.528;11.010;2023-09-18T00:07:04;6.70;;;3.97;;
79412;SDS011;68863;49.528;11.010;2023-09-18T00:08:04;6.53;;;3.40;;
79412;SDS011;68863;49.528;11.010;2023-09-18T00:09:05;6.82;;;3.20;;
79412;SDS011;68863;49.528;11.010;2023-09-18T00:10:07;5.68;;;2.90;;
79412;SDS011;68863;49.528;11.010;2023-09-18T00:11:07;6.47;;;3.92;;
79412;SDS011;68863;49.528;11.010;2023-09-18T00:12:07;6.57;;;3.53;;
79412;SDS011;68863;49.528;11.010;2023-09-18T00:13:09;5.68;;;3.08;;
79412;SDS011;68863;49.528;11.010;2023-09-18T00:14:09;6.30;;;3.53;;
79412;SDS011;68863;49.528;11.010;2023-09-18T00:15:10;6.60;;;3.42;;
79412;SDS011;68863;49.528;11.010;2023-09-18T00:16:10;6.90;;;3.33;;
79412;SDS011;68863;49.528;11.010;2023-09-18T00:17:12;6.30;;;3.75;;
79412;SDS011;68863;49.528;11.010;2023-09-18T00:18:16;7.38;;;4.05;;
79412;SDS011;68863;49.528;11.010;2023-09-18T00:19:17;6.85;;;4.03;;
79412;SDS011;68863;49.528;11.010;2023-09-18T00:20:17;8.02;;;4.13;;
79412;SDS011;68863;49.528;11.010;2023-09-18T00:21:18;6.43;;;3.13;;
79412;SDS011;68863;49.528;11.010;2023-09-18T00:22:19;7.00;;;3.58;;
79412;SDS011;68863;49.528;11.010;2023-09-18T00:23:20;5.57;;;3.13;;
79412;SDS011;68863;49.528;11.010;2023-09-18T00:24:21;7.43;;;3.33;;
79412;SDS011;68863;49.528;11.010;2023-09-18T00:25:21;5.90;;;3.30;;
79412;SDS011;68863;49.528;11.010;2023-09-18T00:26:22;7.82;;;3.80;;
79412;SDS011;68863;49.528;11.010;2023-09-18T00:27:22;5.88;;;3.47;;
79412;SDS011;68863;49.528;11.010;2023-09-18T00:28:23;7.43;;;3.35;;
79412;SDS011;68863;49.528;11.010;2023-09-18T00:29:23;6.55;;;3.90;;
79412;SDS011;68863;49.528;11.010;2023-09-18T00:30:23;6.60;;;3.63;;
79412;SDS011;68863;49.528;11.010;2023-09-18T00:31:24;6.33;;;3.77;;
79412;SDS011;68863;49.528;11.010;2023-09-18T00:32:24;6.50;;;3.67;;
79412;SDS011;68863;49.528;11.010;2023-09-18T00:33:24;6.20;;;3.67;;
79412;SDS011;68863;49.528;11.010;2023-09-18T00:34:24;6.40;;;4.00;;
79412;SDS011;68863;49.528;11.010;2023-09-18T00:35:25;6.97;;;3.35;;
79412;SDS011;68863;49.528;11.010;2023-09-18T00:36:25;7.45;;;3.22;;
79412;SDS011;68863;49.528;11.010;2023-09-18T00:37:26;6.15;;;3.45;;
79412;SDS011;68863;49.528;11.010;2023-09-18T00:38:26;6.20;;;3.30;;
79412;SDS011;68863;49.528;11.010;2023-09-18T00:39:26;5.93;;;3.33;;
79412;SDS011;68863;49.528;11.010;2023-09-18T00:40:27;6.28;;;3.47;;
79412;SDS011;68863;49.528;11.010;2023-09-18T00:41:27;5.95;;;3.28;;
79412;SDS011;68863;49.528;11.010;2023-09-18T00:42:27;6.97;;;3.70;;
79412;SDS011;68863;49.528;11.010;2023-09-18T00:43:27;7.03;;;3.80;;
79412;SDS011;68863;49.528;11.010;2023-09-18T00:44:28;7.00;;;4.10;;
79412;SDS011;68863;49.528;11.010;2023-09-18T00:45:28;6.55;;;3.33;;
79412;SDS011;68863;49.528;11.010;2023-09-18T00:46:29;7.57;;;3.70;;
79412;SDS011;68863;49.528;11.010;2023-09-18T00:47:29;7.30;;;3.90;;
79412;SDS011;68863;49.528;11.010;2023-09-18T00:48:29;6.20;;;3.72;;
79412;SDS011;68863;49.528;11.010;2023-09-18T00:49:30;6.53;;;3.50;;
79412;SDS011;68863;49.528;11.010;2023-09-18T00:50:31;7.10;;;3.70;;
79412;SDS011;68863;49.528;11.010;2023-09-18T00:51:32;5.75;;;2.97;;
79412;SDS011;68863;49.528;11.010;2023-09-18T00:52:32;6.07;;;3.70;;
79412;SDS011;68863;49.528;11.010;2023-09-18T00:53:33;5.70;;;3.25;;
79412;SDS011;68863;49.528;11.010;2023-09-18T00:54:34;6.20;;;3.38;;
79412;SDS011;68863;49.528;11.010;2023-09-18T00:55:37;6.45;;;3.38;;
79412;SDS011;68863;49.528;11.010;2023-09-18T00:56:38;6.10;;;3.45;;
79412;SDS011;68863;49.528;11.010;2023-09-18T00:57:38;5.80;;;3.05;;
79412;SDS011;68863;49.528;11.010;2023-09-18T00:58:39;6.05;;;3.65;;
79412;SDS011;68863;49.528;11.010;2023-09-18T00:59:40;6.80;;;3.35;;
79412;SDS011;68863;49.528;11.010;2023-09-18T01:00:40;6.30;;;3.38;;
79412;SDS011;68863;49.528;11.010;2023-09-18T01:01:41;6.45;;;3.30;;
79412;SDS011;68863;49.528;11.010;2023-09-18T01:02:43;7.10;;;3.47;;
79412;SDS011;68863;49.528;11.010;2023-09-18T01:04:45;5.70;;;2.70;;
79412;SDS011;68863;49.528;11.010;2023-09-18T01:05:45;6.05;;;3.13;;
79412;SDS011;68863;49.528;11.010;2023-09-18T01:06:45;6.32;;;3.22;;
79412;SDS011;68863;49.528;11.010;2023-09-18T01:07:47;6.68;;;3.53;;
79412;SDS011;68863;49.528;11.010;2023-09-18T01:08:47;6.32;;;3.53;;
79412;SDS011;68863;49.528;11.010;2023-09-18T01:09:50;5.82;;;3.03;;
79412;SDS011;68863;49.528;11.010;2023-09-18T01:11:05;6.15;;;3.63;;
79412;SDS011;68863;49.528;11.010;2023-09-18T01:13:50;6.18;;;3.22;;
79412;SDS011;68863;49.528;11.010;2023-09-18T01:16:00;6.80;;;3.17;;
79412;SDS011;68863;49.528;11.010;2023-09-18T01:17:09;6.75;;;3.25;;
79412;SDS011;68863;49.528;11.010;2023-09-18T01:18:10;6.78;;;3.40;;
79412;SDS011;68863;49.528;11.010;2023-09-18T01:19:11;6.25;;;3.25;;
79412;SDS011;68863;49.528;11.010;2023-09-18T01:20:11;7.55;;;3.40;;
79412;SDS011;68863;49.528;11.010;2023-09-18T01:21:12;5.55;;;3.22;;
79412;SDS011;68863;49.528;11.010;2023-09-18T01:22:16;6.60;;;3.23;;
79412;SDS011;68863;49.528;11.010;2023-09-18T01:23:17;5.80;;;3.03;;
79412;SDS011;68863;49.528;11.010;2023-09-18T01:24:18;7.55;;;3.40;;
79412;SDS011;68863;49.528;11.010;2023-09-18T01:25:18;6.57;;;3.10;;
79412;SDS011;68863;49.528;11.010;2023-09-18T01:26:18;6.35;;;3.22;;
79412;SDS011;68863;49.528;11.010;2023-09-18T01:27:19;6.27;;;3.33;;
79412;SDS011;68863;49.528;11.010;2023-09-18T01:28:19;6.63;;;3.42;;
79412;SDS011;68863;49.528;11.010;2023-09-18T01:29:20;5.77;;;3.00;;
79412;SDS011;68863;49.528;11.010;2023-09-18T01:30:20;6.80;;;3.83;;
79412;SDS011;68863;49.528;11.010;2023-09-18T01:31:21;6.90;;;3.27;;
79412;SDS011;68863;49.528;11.010;2023-09-18T01:32:23;6.68;;;3.70;;
79412;SDS011;68863;49.528;11.010;2023-09-18T01:33:26;7.20;;;3.53;;
79412;SDS011;68863;49.528;11.010;2023-09-18T01:35:31;6.15;;;3.08;;
79412;SDS011;68863;49.528;11.010;2023-09-18T01:36:34;6.55;;;3.65;;
79412;SDS011;68863;49.528;11.010;2023-09-18T01:37:34;5.75;;;3.08;;
79412;SDS011;68863;49.528;11.010;2023-09-18T01:38:37;6.55;;;3.55;;
79412;SDS011;68863;49.528;11.010;2023-09-18T01:39:38;6.05;;;3.38;;
79412;SDS011;68863;49.528;11.010;2023-09-18T01:40:39;6.82;;;3.53;;
79412;SDS011;68863;49.528;11.010;2023-09-18T01:41:40;6.40;;;3.50;;
79412;SDS011;68863;49.528;11.010;2023-09-18T01:42:41;6.65;;;3.08;;
79412;SDS011;68863;49.528;11.010;2023-09-18T01:43:41;6.38;;;3.55;;
79412;SDS011;68863;49.528;11.010;2023-09-18T01:44:42;7.13;;;3.53;;
79412;SDS011;68863;49.528;11.010;2023-09-18T01:45:43;6.53;;;3.33;;
79412;SDS011;68863;49.528;11.010;2023-09-18T01:46:44;5.93;;;3.33;;
79412;SDS011;68863;49.528;11.010;2023-09-18T01:47:45;7.15;;;3.55;;
79412;SDS011;68863;49.528;11.010;2023-09-18T01:48:46;6.55;;;3.42;;
79412;SDS011;68863;49.528;11.010;2023-09-18T01:49:47;7.95;;;3.63;;
79412;SDS011;68863;49.528;11.010;2023-09-18T01:50:47;6.53;;;3.40;;
79412;SDS011;68863;49.528;11.010;2023-09-18T01:51:47;6.88;;;3.50;;
79412;SDS011;68863;49.528;11.010;2023-09-18T01:52:48;6.30;;;3.40;;
79412;SDS011;68863;49.528;11.010;2023-09-18T01:53:48;5.93;;;3.30;;
79412;SDS011;68863;49.528;11.010;2023-09-18T01:54:49;6.55;;;3.33;;
79412;SDS011;68863;49.528;11.010;2023-09-18T01:55:49;6.55;;;3.67;;
79412;SDS011;68863;49.528;11.010;2023-09-18T01:56:50;6.88;;;3.90;;
79412;SDS011;68863;49.528;11.010;2023-09-18T01:57:51;6.07;;;3.63;;
79412;SDS011;68863;49.528;11.010;2023-09-18T01:58:51;5.67;;;3.00;;
79412;SDS011;68863;49.528;11.010;2023-09-18T01:59:51;6.40;;;3.53;;
79412;SDS011;68863;49.528;11.010;2023-09-18T02:00:51;6.10;;;3.30;;
79412;SDS011;68863;49.528;11.010;2023-09-18T02:01:52;6.03;;;3.40;;
79412;SDS011;68863;49.528;11.010;2023-09-18T02:02:53;6.15;;;3.40;;
79412;SDS011;68863;49.528;11.010;2023-09-18T02:03:55;7.10;;;3.13;;
79412;SDS011;68863;49.528;11.010;2023-09-18T02:04:55;5.57;;;3.00;;
79412;SDS011;68863;49.528;11.010;2023-09-18T02:05:55;6.65;;;3.45;;
79412;SDS011;68863;49.528;11.010;2023-09-18T02:06:56;5.70;;;3.45;;
79412;SDS011;68863;49.528;11.010;2023-09-18T02:07:57;7.35;;;3.05;;
79412;SDS011;68863;49.528;11.010;2023-09-18T02:08:57;6.03;;;3.27;;
79412;SDS011;68863;49.528;11.010;2023-09-18T02:09:57;5.65;;;2.95;;
79412;SDS011;68863;49.528;11.010;2023-09-18T02:10:57;6.55;;;3.28;;
79412;SDS011;68863;49.528;11.010;2023-09-18T02:11:58;6.03;;;3.20;;
79412;SDS011;68863;49.528;11.010;2023-09-18T02:12:58;6.13;;;3.07;;
79412;SDS011;68863;49.528;11.010;2023-09-18T02:13:58;6.27;;;3.20;;
79412;SDS011;68863;49.528;11.010;2023-09-18T02:14:58;7.10;;;3.50;;
79412;SDS011;68863;49.528;11.010;2023-09-18T02:16:04;6.43;;;3.25;;
79412;SDS011;68863;49.528;11.010;2023-09-18T02:17:04;5.47;;;2.87;;
79412;SDS011;68863;49.528;11.010;2023-09-18T02:18:05;5.78;;;3.13;;
79412;SDS011;68863;49.528;11.010;2023-09-18T02:19:05;6.18;;;3.15;;
79412;SDS011;68863;49.528;11.010;2023-09-18T02:20:07;6.30;;;3.03;;
79412;SDS011;68863;49.528;11.010;2023-09-18T02:21:11;7.30;;;3.05;;
79412;SDS011;68863;49.528;11.010;2023-09-18T02:22:11;6.43;;;3.00;;
79412;SDS011;68863;49.528;11.010;2023-09-18T02:23:11;5.80;;;3.23;;
79412;SDS011;68863;49.528;11.010;2023-09-18T02:24:12;5.75;;;2.78;;
79412;SDS011;68863;49.528;11.010;2023-09-18T02:25:12;6.32;;;2.83;;
79412;SDS011;68863;49.528;11.010;2023-09-18T02:26:12;6.97;;;2.90;;
79412;SDS011;68863;49.528;11.010;2023-09-18T02:27:12;6.87;;;3.10;;
79412;SDS011;68863;49.528;11.010;2023-09-18T02:28:13;6.63;;;3.35;;
79412;SDS011;68863;49.528;11.010;2023-09-18T02:29:13;5.60;;;3.22;;
79412;SDS011;68863;49.528;11.010;2023-09-18T02:30:14;6.32;;;3.05;;
79412;SDS011;68863;49.528;11.010;2023-09-18T02:31:14;5.97;;;2.97;;
79412;SDS011;68863;49.528;11.010;2023-09-18T02:32:16;7.97;;;3.40;;
79412;SDS011;68863;49.528;11.010;2023-09-18T02:33:16;4.97;;;2.33;;
79412;SDS011;68863;49.528;11.010;2023-09-18T02:34:17;6.53;;;3.00;;
79412;SDS011;68863;49.528;11.010;2023-09-18T02:35:19;5.85;;;2.92;;
79412;SDS011;68863;49.528;11.010;2023-09-18T02:36:19;5.38;;;2.80;;
79412;SDS011;68863;49.528;11.010;2023-09-18T02:37:19;5.70;;;2.90;;
79412;SDS011;68863;49.528;11.010;2023-09-18T02:38:19;5.87;;;2.80;;
79412;SDS011;68863;49.528;11.010;2023-09-18T02:39:20;5.17;;;2.60;;
79412;SDS011;68863;49.528;11.010;2023-09-18T02:40:20;5.43;;;2.88;;
79412;SDS011;68863;49.528;11.010;2023-09-18T02:41:20;5.43;;;2.93;;
79412;SDS011;68863;49.528;11.010;2023-09-18T02:42:20;6.35;;;2.65;;
79412;SDS011;68863;49.528;11.010;2023-09-18T02:43:21;5.63;;;2.97;;
79412;SDS011;68863;49.528;11.010;2023-09-18T02:44:21;5.47;;;3.07;;
79412;SDS011;68863;49.528;11.010;2023-09-18T02:45:21;7.70;;;2.90;;
79412;SDS011;68863;49.528;11.010;2023-09-18T02:46:22;6.03;;;2.88;;
79412;SDS011;68863;49.528;11.010;2023-09-18T02:47:22;6.53;;;3.10;;
79412;SDS011;68863;49.528;11.010;2023-09-18T02:48:22;6.10;;;2.70;;
79412;SDS011;68863;49.528;11.010;2023-09-18T02:49:22;8.07;;;3.20;;
79412;SDS011;68863;49.528;11.010;2023-09-18T02:50:23;6.35;;;2.60;;
79412;SDS011;68863;49.528;11.010;2023-09-18T02:51:23;5.35;;;2.92;;
79412;SDS011;68863;49.528;11.010;2023-09-18T02:52:23;6.43;;;2.60;;
79412;SDS011;68863;49.528;11.010;2023-09-18T02:53:24;5.43;;;2.77;;
79412;SDS011;68863;49.528;11.010;2023-09-18T02:54:24;6.55;;;2.67;;
79412;SDS011;68863;49.528;11.010;2023-09-18T02:55:24;6.38;;;2.75;;
79412;SDS011;68863;49.528;11.010;2023-09-18T02:56:25;8.35;;;2.72;;
79412;SDS011;68863;49.528;11.010;2023-09-18T02:57:25;5.20;;;2.67;;
79412;SDS011;68863;49.528;11.010;2023-09-18T02:58:25;6.60;;;3.07;;
79412;SDS011;68863;49.528;11.010;2023-09-18T02:59:28;6.30;;;3.15;;
79412;SDS011;68863;49.528;11.010;2023-09-18T03:00:28;6.40;;;2.63;;
79412;SDS011;68863;49.528;11.010;2023-09-18T03:01:28;5.97;;;3.00;;
79412;SDS011;68863;49.528;11.010;2023-09-18T03:02:29;5.95;;;2.92;;
79412;SDS011;68863;49.528;11.010;2023-09-18T03:03:29;5.43;;;2.95;;
79412;SDS011;68863;49.528;11.010;2023-09-18T03:04:31;5.78;;;2.58;;
79412;SDS011;68863;49.528;11.010;2023-09-18T03:05:31;8.27;;;2.90;;
79412;SDS011;68863;49.528;11.010;2023-09-18T03:06:31;5.85;;;3.17;;
79412;SDS011;68863;49.528;11.010;2023-09-18T03:07:32;5.33;;;2.60;;
79412;SDS011;68863;49.528;11.010;2023-09-18T03:08:32;7.83;;;2.77;;
79412;SDS011;68863;49.528;11.010;2023-09-18T03:09:32;6.03;;;2.88;;
79412;SDS011;68863;49.528;11.010;2023-09-18T03:10:33;7.47;;;2.80;;
79412;SDS011;68863;49.528;11.010;2023-09-18T03:11:37;5.97;;;2.63;;
79412;SDS011;68863;49.528;11.010;2023-09-18T03:12:37;4.85;;;2.58;;
79412;SDS011;68863;49.528;11.010;2023-09-18T03:13:42;5.83;;;2.80;;
79412;SDS011;68863;49.528;11.010;2023-09-18T03:14:44;5.40;;;2.85;;
79412;SDS011;68863;49.528;11.010;2023-09-18T03:15:44;6.83;;;2.83;;
79412;SDS011;68863;49.528;11.010;2023-09-18T03:16:47;5.80;;;2.67;;
79412;SDS011;68863;49.528;11.010;2023-09-18T03:17:47;5.80;;;3.00;;
79412;SDS011;68863;49.528;11.010;2023-09-18T03:18:50;5.72;;;2.58;;
79412;SDS011;68863;49.528;11.010;2023-09-18T03:19:50;6.03;;;2.93;;
79412;SDS011;68863;49.528;11.010;2023-09-18T03:20:50;5.93;;;2.97;;
79412;SDS011;68863;49.528;11.010;2023-09-18T03:21:51;5.93;;;2.67;;
79412;SDS011;68863;49.528;11.010;2023-09-18T03:22:51;7.20;;;2.80;;
79412;SDS011;68863;49.528;11.010;2023-09-18T03:24:53;5.70;;;2.43;;
79412;SDS011;68863;49.528;11.010;2023-09-18T03:25:54;5.87;;;2.90;;
79412;SDS011;68863;49.528;11.010;2023-09-18T03:26:54;5.80;;;2.80;;
79412;SDS011;68863;49.528;11.010;2023-09-18T03:27:55;6.03;;;2.70;;
79412;SDS011;68863;49.528;11.010;2023-09-18T03:28:57;5.78;;;2.75;;
79412;SDS011;68863;49.528;11.010;2023-09-18T03:29:58;5.63;;;2.80;;
79412;SDS011;68863;49.528;11.010;2023-09-18T03:30:58;5.75;;;2.80;;
79412;SDS011;68863;49.528;11.010;2023-09-18T03:31:58;7.32;;;3.03;;
79412;SDS011;68863;49.528;11.010;2023-09-18T03:32:59;5.40;;;2.85;;
79412;SDS011;68863;49.528;11.010;2023-09-18T03:33:59;5.53;;;2.83;;
79412;SDS011;68863;49.528;11.010;2023-09-18T03:34:59;5.97;;;2.65;;
79412;SDS011;68863;49.528;11.010;2023-09-18T03:36:00;5.53;;;2.80;;
79412;SDS011;68863;49.528;11.010;2023-09-18T03:37:00;6.13;;;3.13;;
79412;SDS011;68863;49.528;11.010;2023-09-18T03:38:00;5.67;;;2.70;;
79412;SDS011;68863;49.528;11.010;2023-09-18T03:39:00;6.80;;;3.03;;
79412;SDS011;68863;49.528;11.010;2023-09-18T03:40:01;5.53;;;2.87;;
79412;SDS011;68863;49.528;11.010;2023-09-18T03:41:02;5.38;;;2.70;;
79412;SDS011;68863;49.528;11.010;2023-09-18T03:42:02;4.97;;;2.72;;
79412;SDS011;68863;49.528;11.010;2023-09-18T03:43:03;7.03;;;2.75;;
79412;SDS011;68863;49.528;11.010;2023-09-18T03:44:03;5.20;;;2.60;;
79412;SDS011;68863;49.528;11.010;2023-09-18T03:45:07;5.88;;;2.92;;
79412;SDS011;68863;49.528;11.010;2023-09-18T03:46:08;5.68;;;2.80;;
79412;SDS011;68863;49.528;11.010;2023-09-18T03:47:08;5.47;;;2.47;;
79412;SDS011;68863;49.528;11.010;2023-09-18T03:48:09;6.25;;;3.03;;
79412;SDS011;68863;49.528;11.010;2023-09-18T03:49:10;6.60;;;2.92;;
79412;SDS011;68863;49.528;11.010;2023-09-18T03:50:10;5.30;;;2.33;;
79412;SDS011;68863;49.528;11.010;2023-09-18T03:51:11;5.00;;;2.42;;
79412;SDS011;68863;49.528;11.010;2023-09-18T03:52:15;6.38;;;2.88;;
79412;SDS011;68863;49.528;11.010;2023-09-18T03:53:15;6.17;;;2.50;;
79412;SDS011;68863;49.528;11.010;2023-09-18T03:54:16;6.75;;;3.05;;
79412;SDS011;68863;49.528;11.010;2023-09-18T03:55:16;5.37;;;2.77;;
79412;SDS011;68863;49.528;11.010;2023-09-18T03:56:16;6.65;;;2.97;;
79412;SDS011;68863;49.528;11.010;2023-09-18T03:57:17;7.50;;;2.92;;
79412;SDS011;68863;49.528;11.010;2023-09-18T03:58:17;5.37;;;2.50;;
79412;SDS011;68863;49.528;11.010;2023-09-18T03:59:17;6.07;;;3.30;;
79412;SDS011;68863;49.528;11.010;2023-09-18T04:00:17;5.20;;;2.93;;
79412;SDS011;68863;49.528;11.010;2023-09-18T04:01:18;5.53;;;3.08;;
79412;SDS011;68863;49.528;11.010;2023-09-18T04:02:18;5.45;;;2.70;;
79412;SDS011;68863;49.528;11.010;2023-09-18T04:03:18;5.63;;;2.70;;
79412;SDS011;68863;49.528;11.010;2023-09-18T04:04:18;6.05;;;2.95;;
79412;SDS011;68863;49.528;11.010;2023-09-18T04:05:19;6.75;;;2.95;;
79412;SDS011;68863;49.528;11.010;2023-09-18T04:06:20;5.75;;;2.92;;
79412;SDS011;68863;49.528;11.010;2023-09-18T04:07:21;7.45;;;2.72;;
79412;SDS011;68863;49.528;11.010;2023-09-18T04:08:21;6.40;;;3.30;;
79412;SDS011;68863;49.528;11.010;2023-09-18T04:09:21;5.60;;;2.90;;
79412;SDS011;68863;49.528;11.010;2023-09-18T04:10:22;6.40;;;2.83;;
79412;SDS011;68863;49.528;11.010;2023-09-18T04:11:24;5.80;;;2.95;;
79412;SDS011;68863;49.528;11.010;2023-09-18T04:12:26;6.10;;;3.10;;
79412;SDS011;68863;49.528;11.010;2023-09-18T04:13:26;6.50;;;2.78;;
79412;SDS011;68863;49.528;11.010;2023-09-18T04:14:27;5.65;;;2.63;;
79412;SDS011;68863;49.528;11.010;2023-09-18T04:15:27;5.57;;;2.53;;
79412;SDS011;68863;49.528;11.010;2023-09-18T04:16:27;6.15;;;2.67;;
79412;SDS011;68863;49.528;11.010;2023-09-18T04:17:28;6.15;;;2.95;;
79412;SDS011;68863;49.528;11.010;2023-09-18T04:18:28;5.70;;;2.83;;
79412;SDS011;68863;49.528;11.010;2023-09-18T04:19:28;6.00;;;2.83;;
79412;SDS011;68863;49.528;11.010;2023-09-18T04:20:29;5.32;;;2.80;;
79412;SDS011;68863;49.528;11.010;2023-09-18T04:21:29;5.32;;;3.00;;
79412;SDS011;68863;49.528;11.010;2023-09-18T04:22:30;5.10;;;2.92;;
79412;SDS011;68863;49.528;11.010;2023-09-18T04:23:30;7.20;;;2.93;;
79412;SDS011;68863;49.528;11.010;2023-09-18T04:24:30;5.32;;;2.50;;
79412;SDS011;68863;49.528;11.010;2023-09-18T04:25:30;7.43;;;2.70;;
79412;SDS011;68863;49.528;11.010;2023-09-18T04:26:32;6.60;;;3.60;;
79412;SDS011;68863;49.528;11.010;2023-09-18T04:27:33;8.20;;;3.25;;
79412;SDS011;68863;49.528;11.010;2023-09-18T04:28:33;5.80;;;3.25;;
79412;SDS011;68863;49.528;11.010;2023-09-18T04:29:33;7.07;;;2.93;;
79412;SDS011;68863;49.528;11.010;2023-09-18T04:30:34;6.25;;;3.13;;
79412;SDS011;68863;49.528;11.010;2023-09-18T04:31:34;5.57;;;2.87;;
79412;SDS011;68863;49.528;11.010;2023-09-18T04:32:35;6.72;;;3.28;;
79412;SDS011;68863;49.528;11.010;2023-09-18T04:33:37;7.60;;;3.67;;
79412;SDS011;68863;49.528;11.010;2023-09-18T04:34:37;7.00;;;3.22;;
79412;SDS011;68863;49.528;11.010;2023-09-18T04:35:39;7.18;;;3.75;;
79412;SDS011;68863;49.528;11.010;2023-09-18T04:36:39;9.38;;;4.15;;
79412;SDS011;68863;49.528;11.010;2023-09-18T04:37:40;7.07;;;3.60;;
79412;SDS011;68863;49.528;11.010;2023-09-18T04:38:40;11.55;;;4.63;;
79412;SDS011;68863;49.528;11.010;2023-09-18T04:39:40;7.97;;;4.50;;
79412;SDS011;68863;49.528;11.010;2023-09-18T04:40:40;8.40;;;4.57;;
79412;SDS011;68863;49.528;11.010;2023-09-18T04:41:41;6.50;;;3.47;;
79412;SDS011;68863;49.528;11.010;2023-09-18T04:42:41;7.65;;;3.80;;
79412;SDS011;68863;49.528;11.010;2023-09-18T04:43:42;6.72;;;3.20;;
79412;SDS011;68863;49.528;11.010;2023-09-18T04:44:43;6.10;;;3.50;;
79412;SDS011;68863;49.528;11.010;2023-09-18T04:45:44;6.67;;;3.70;;
79412;SDS011;68863;49.528;11.010;2023-09-18T04:46:44;7.43;;;3.72;;
79412;SDS011;68863;49.528;11.010;2023-09-18T04:47:44;7.07;;;3.30;;
79412;SDS011;68863;49.528;11.010;2023-09-18T04:48:45;7.10;;;3.20;;
79412;SDS011;68863;49.528;11.010;2023-09-18T04:49:45;6.53;;;3.30;;
79412;SDS011;68863;49.528;11.010;2023-09-18T04:50:48;6.30;;;3.47;;
79412;SDS011;68863;49.528;11.010;2023-09-18T04:51:48;7.63;;;3.63;;
79412;SDS011;68863;49.528;11.010;2023-09-18T04:52:48;6.57;;;3.13;;
79412;SDS011;68863;49.528;11.010;2023-09-18T04:53:50;7.90;;;3.47;;
79412;SDS011;68863;49.528;11.010;2023-09-18T04:54:58;6.07;;;3.17;;
79412;SDS011;68863;49.528;11.010;2023-09-18T04:55:58;7.80;;;3.28;;
79412;SDS011;68863;49.528;11.010;2023-09-18T04:56:58;7.05;;;3.42;;
79412;SDS011;68863;49.528;11.010;2023-09-18T04:57:59;5.95;;;3.10;;
79412;SDS011;68863;49.528;11.010;2023-09-18T04:58:59;7.68;;;3.38;;
79412;SDS011;68863;49.528;11.010;2023-09-18T05:00:00;7.50;;;3.30;;
79412;SDS011;68863;49.528;11.010;2023-09-18T05:01:00;6.65;;;3.47;;
79412;SDS011;68863;49.528;11.010;2023-09-18T05:02:00;8.03;;;3.70;;
79412;SDS011;68863;49.528;11.010;2023-09-18T05:03:00;8.13;;;3.30;;
79412;SDS011;68863;49.528;11.010;2023-09-18T05:04:03;6.47;;;3.60;;
79412;SDS011;68863;49.528;11.010;2023-09-18T05:05:03;5.70;;;2.83;;
79412;SDS011;68863;49.528;11.010;2023-09-18T05:06:04;6.70;;;3.03;;
79412;SDS011;68863;49.528;11.010;2023-09-18T05:07:04;7.50;;;3.65;;
79412;SDS011;68863;49.528;11.010;2023-09-18T05:08:07;6.50;;;3.10;;
79412;SDS011;68863;49.528;11.010;2023-09-18T05:09:07;7.85;;;3.40;;
79412;SDS011;68863;49.528;11.010;2023-09-18T05:10:08;7.53;;;3.92;;
79412;SDS011;68863;49.528;11.010;2023-09-18T05:11:09;6.47;;;3.58;;
79412;SDS011;68863;49.528;11.010;2023-09-18T05:12:09;7.93;;;3.92;;
79412;SDS011;68863;49.528;11.010;2023-09-18T05:13:13;8.48;;;4.13;;
79412;SDS011;68863;49.528;11.010;2023-09-18T05:14:13;7.17;;;3.50;;
79412;SDS011;68863;49.528;11.010;2023-09-18T05:15:16;6.85;;;3.05;;
79412;SDS011;68863;49.528;11.010;2023-09-18T05:16:16;6.80;;;3.25;;
79412;SDS011;68863;49.528;11.010;2023-09-18T05:17:17;8.02;;;3.45;;
79412;SDS011;68863;49.528;11.010;2023-09-18T05:18:18;7.45;;;3.40;;
79412;SDS011;68863;49.528;11.010;2023-09-18T05:19:18;6.80;;;3.33;;
79412;SDS011;68863;49.528;11.010;2023-09-18T05:20:18;8.10;;;3.22;;
79412;SDS011;68863;49.528;11.010;2023-09-18T05:21:19;6.55;;;3.15;;
79412;SDS011;68863;49.528;11.010;2023-09-18T05:22:24;7.35;;;3.08;;
79412;SDS011;68863;49.528;11.010;2023-09-18T05:23:24;6.10;;;3.40;;
79412;SDS011;68863;49.528;11.010;2023-09-18T05:24:25;6.32;;;3.47;;
79412;SDS011;68863;49.528;11.010;2023-09-18T05:25:27;6.90;;;3.20;;
79412;SDS011;68863;49.528;11.010;2023-09-18T05:26:31;6.20;;;3.28;;
79412;SDS011;68863;49.528;11.010;2023-09-18T05:27:32;8.82;;;3.80;;
79412;SDS011;68863;49.528;11.010;2023-09-18T05:28:32;7.70;;;3.83;;
79412;SDS011;68863;49.528;11.010;2023-09-18T05:29:33;7.40;;;3.77;;
79412;SDS011;68863;49.528;11.010;2023-09-18T05:30:36;7.22;;;3.47;;
79412;SDS011;68863;49.528;11.010;2023-09-18T05:31:38;6.70;;;3.83;;
79412;SDS011;68863;49.528;11.010;2023-09-18T05:32:38;8.27;;;3.33;;
79412;SDS011;68863;49.528;11.010;2023-09-18T05:33:39;6.43;;;3.20;;
79412;SDS011;68863;49.528;11.010;2023-09-18T05:34:39;7.50;;;4.10;;
79412;SDS011;68863;49.528;11.010;2023-09-18T05:35:40;7.00;;;3.57;;
79412;SDS011;68863;49.528;11.010;2023-09-18T05:36:42;9.10;;;3.42;;
79412;SDS011;68863;49.528;11.010;2023-09-18T05:37:42;6.95;;;3.83;;
79412;SDS011;68863;49.528;11.010;2023-09-18T05:38:43;8.13;;;4.05;;
79412;SDS011;68863;49.528;11.010;2023-09-18T05:39:43;8.23;;;3.77;;
79412;SDS011;68863;49.528;11.010;2023-09-18T05:40:44;8.90;;;4.23;;
79412;SDS011;68863;49.528;11.010;2023-09-18T05:41:44;7.63;;;3.95;;
79412;SDS011;68863;49.528;11.010;2023-09-18T05:42:45;8.27;;;4.05;;
79412;SDS011;68863;49.528;11.010;2023-09-18T05:43:45;7.78;;;4.03;;
79412;SDS011;68863;49.528;11.010;2023-09-18T05:44:46;7.05;;;4.00;;
79412;SDS011;68863;49.528;11.010;2023-09-18T05:45:47;7.93;;;3.92;;
79412;SDS011;68863;49.528;11.010;2023-09-18T05:46:49;7.65;;;3.55;;
79412;SDS011;68863;49.528;11.010;2023-09-18T05:47:50;8.77;;;4.15;;
79412;SDS011;68863;49.528;11.010;2023-09-18T05:48:50;6.28;;;3.83;;
79412;SDS011;68863;49.528;11.010;2023-09-18T05:49:50;9.82;;;4.25;;
79412;SDS011;68863;49.528;11.010;2023-09-18T05:50:51;7.87;;;3.37;;
79412;SDS011;68863;49.528;11.010;2023-09-18T05:51:52;7.80;;;4.28;;
79412;SDS011;68863;49.528;11.010;2023-09-18T05:52:53;7.23;;;3.83;;
79412;SDS011;68863;49.528;11.010;2023-09-18T05:53:53;7.40;;;3.53;;
79412;SDS011;68863;49.528;11.010;2023-09-18T05:54:53;7.10;;;3.83;;
79412;SDS011;68863;49.528;11.010;2023-09-18T05:55:54;7.07;;;3.95;;
79412;SDS011;68863;49.528;11.010;2023-09-18T05:56:56;9.57;;;4.35;;
79412;SDS011;68863;49.528;11.010;2023-09-18T05:57:56;8.70;;;4.10;;
79412;SDS011;68863;49.528;11.010;2023-09-18T05:59:00;6.80;;;3.92;;
79412;SDS011;68863;49.528;11.010;2023-09-18T06:00:00;7.57;;;3.93;;
79412;SDS011;68863;49.528;11.010;2023-09-18T06:01:01;7.93;;;3.50;;
79412;SDS011;68863;49.528;11.010;2023-09-18T06:02:01;8.80;;;3.65;;
79412;SDS011;68863;49.528;11.010;2023-09-18T06:03:02;7.80;;;3.67;;
79412;SDS011;68863;49.528;11.010;2023-09-18T06:04:05;8.90;;;4.68;;
79412;SDS011;68863;49.528;11.010;2023-09-18T06:05:05;6.65;;;3.67;;
79412;SDS011;68863;49.528;11.010;2023-09-18T06:06:06;7.60;;;3.83;;